Česky Dansk Deutsch English Español Suomi Français Magyar Italiano Nederlands norsk Polski Português svenska Türkçe

 

Het Weer

Wainfleet (Groot Britanië)

08:50, 16 maart 2010 (GMT)

NWNNE
WE
SWSSE
Home            
Wainfleet Holbeach Coningsby Royal Air Force Base Sculthorpe Af Met Cranwell Marham Waddington Barkston Heath Royal Air Force Base Scampton Humberside Wittering Cottesmore Lakenheath Royal Air Force Base Mildenhall Royal Air Force Base Newton Wyton Royal Air Force Base Norwich Weather Centre Alconbury Royal Air Force Base Honington Royal Air Force Base Cambridge Leconfield Coltishall East Midlands

Om een weerknop op uw website of weblog te plaatsen, copieer onderstaande code en plak die in uw pagina. In het eerste vakje staat HTML-code, in het tweede vakje UBB-code.


Add to Google

Details

Wind speed:2 bf, 5 kn, 2.6 m/s, 5.8 miles/h, 9.3 km/h
Wind direction:WSW, 250°
Het Weer:moderate
Temperature:5°C, 41°F
Dew-point:2°C, 36°F
Atmospheric pressure:1025 hPa, 768.8 mmHg, 30.27 inHg, 1.012 atm
Relative humidity:80.9 %
METAR:EGYW 160850Z AUTO 25005KT 9999NDV NCD 05/02 Q1025

Snelkoppelingen

Actuele weersinformatie van de hele wereld. Voeg locaties toe met het plus (+) symbool. Deze snelkoppelingen kunnen worden toegevoegd aan Google.

Lid van de Technetium groep

website free tracking
StatCounter NetStat W3C Validator

20-01-2021 02:13:25
astro.technetium.be money.technetium.be phote.technetium.be tafeltennistafel.technetium.be www.ligfiets.net